sensor_id;sensor_type;location;lat;lon;timestamp;pressure;altitude;pressure_sealevel;temperature;humidity
46211;BME280;52144;48.040;-1.594;2023-03-04T00:00:33;102193.88;;;5.71;86.76
46211;BME280;52144;48.040;-1.594;2023-03-04T00:03:01;102183.34;;;5.38;88.92
46211;BME280;52144;48.040;-1.594;2023-03-04T00:05:29;102186.00;;;5.43;90.29
46211;BME280;52144;48.040;-1.594;2023-03-04T00:07:56;102191.28;;;5.46;90.52
46211;BME280;52144;48.040;-1.594;2023-03-04T00:10:24;102190.41;;;5.35;90.91
46211;BME280;52144;48.040;-1.594;2023-03-04T00:12:52;102186.88;;;5.47;91.07
46211;BME280;52144;48.040;-1.594;2023-03-04T00:15:20;102188.66;;;5.14;91.61
46211;BME280;52144;48.040;-1.594;2023-03-04T00:17:49;102188.66;;;5.20;93.15
46211;BME280;52144;48.040;-1.594;2023-03-04T00:20:17;102188.66;;;5.15;94.27
46211;BME280;52144;48.040;-1.594;2023-03-04T00:22:45;102190.41;;;5.49;90.01
46211;BME280;52144;48.040;-1.594;2023-03-04T00:25:13;102193.03;;;5.41;90.27
46211;BME280;52144;48.040;-1.594;2023-03-04T00:27:41;102194.81;;;5.36;91.12
46211;BME280;52144;48.040;-1.594;2023-03-04T00:30:10;102193.94;;;5.37;91.77
46211;BME280;52144;48.040;-1.594;2023-03-04T00:32:38;102188.66;;;5.35;92.01
46211;BME280;52144;48.040;-1.594;2023-03-04T00:35:08;102193.06;;;5.32;92.05
46211;BME280;52144;48.040;-1.594;2023-03-04T00:37:36;102196.59;;;5.34;91.33
46211;BME280;52144;48.040;-1.594;2023-03-04T00:40:05;102203.63;;;5.52;89.56
46211;BME280;52144;48.040;-1.594;2023-03-04T00:42:33;102203.59;;;5.59;89.19
46211;BME280;52144;48.040;-1.594;2023-03-04T00:45:01;102208.03;;;5.34;90.36
46211;BME280;52144;48.040;-1.594;2023-03-04T00:47:29;102203.63;;;5.29;91.46
46211;BME280;52144;48.040;-1.594;2023-03-04T00:49:57;102208.03;;;5.08;92.53
46211;BME280;52144;48.040;-1.594;2023-03-04T00:52:26;102208.03;;;5.17;92.84
46211;BME280;52144;48.040;-1.594;2023-03-04T00:54:54;102214.22;;;5.32;92.20
46211;BME280;52144;48.040;-1.594;2023-03-04T00:57:22;102214.19;;;5.22;92.87
46211;BME280;52144;48.040;-1.594;2023-03-04T00:59:50;102221.25;;;5.30;91.90
46211;BME280;52144;48.040;-1.594;2023-03-04T01:02:17;102214.22;;;5.38;91.24
46211;BME280;52144;48.040;-1.594;2023-03-04T01:04:45;102209.78;;;5.32;90.97
46211;BME280;52144;48.040;-1.594;2023-03-04T01:07:13;102208.91;;;5.35;90.41
46211;BME280;52144;48.040;-1.594;2023-03-04T01:09:42;102204.50;;;5.43;89.53
46211;BME280;52144;48.040;-1.594;2023-03-04T01:12:10;102214.22;;;5.26;90.30
46211;BME280;52144;48.040;-1.594;2023-03-04T01:14:38;102215.09;;;5.26;90.35
46211;BME280;52144;48.040;-1.594;2023-03-04T01:17:06;102208.94;;;5.26;91.28
46211;BME280;52144;48.040;-1.594;2023-03-04T01:19:34;102206.28;;;5.18;91.89
46211;BME280;52144;48.040;-1.594;2023-03-04T01:22:02;102206.28;;;5.33;90.75
46211;BME280;52144;48.040;-1.594;2023-03-04T01:24:30;102217.72;;;5.34;89.98
46211;BME280;52144;48.040;-1.594;2023-03-04T01:26:59;102208.91;;;5.01;91.13
46211;BME280;52144;48.040;-1.594;2023-03-04T01:29:27;102208.03;;;5.08;91.46
46211;BME280;52144;48.040;-1.594;2023-03-04T01:31:55;102219.47;;;4.98;92.97
46211;BME280;52144;48.040;-1.594;2023-03-04T01:34:23;102216.84;;;5.07;93.75
46211;BME280;52144;48.040;-1.594;2023-03-04T01:36:51;102208.00;;;4.74;94.12
46211;BME280;52144;48.040;-1.594;2023-03-04T01:39:19;102209.78;;;5.05;94.76
46211;BME280;52144;48.040;-1.594;2023-03-04T01:41:47;102214.16;;;4.79;93.97
46211;BME280;52144;48.040;-1.594;2023-03-04T01:44:16;102211.56;;;5.12;92.65
46211;BME280;52144;48.040;-1.594;2023-03-04T01:46:47;102204.50;;;4.97;94.40
46211;BME280;52144;48.040;-1.594;2023-03-04T01:49:16;102205.41;;;5.11;93.61
46211;BME280;52144;48.040;-1.594;2023-03-04T01:51:48;102206.25;;;5.09;93.71
46211;BME280;52144;48.040;-1.594;2023-03-04T01:54:16;102198.34;;;5.18;93.22
46211;BME280;52144;48.040;-1.594;2023-03-04T01:56:45;102203.63;;;5.07;93.51
46211;BME280;52144;48.040;-1.594;2023-03-04T01:59:17;102198.34;;;5.13;94.17
46211;BME280;52144;48.040;-1.594;2023-03-04T02:01:47;102196.59;;;5.21;94.52
46211;BME280;52144;48.040;-1.594;2023-03-04T02:04:18;102196.56;;;5.23;92.56
46211;BME280;52144;48.040;-1.594;2023-03-04T02:06:48;102192.16;;;5.14;93.34
46211;BME280;52144;48.040;-1.594;2023-03-04T02:09:17;102194.84;;;5.23;94.08
46211;BME280;52144;48.040;-1.594;2023-03-04T02:11:46;102197.47;;;5.08;93.51
46211;BME280;52144;48.040;-1.594;2023-03-04T02:14:16;102189.53;;;5.19;92.92
46211;BME280;52144;48.040;-1.594;2023-03-04T02:16:45;102196.59;;;5.34;93.73
46211;BME280;52144;48.040;-1.594;2023-03-04T02:19:20;102195.69;;;5.35;94.28
46211;BME280;52144;48.040;-1.594;2023-03-04T02:21:52;102192.16;;;5.33;93.62
46211;BME280;52144;48.040;-1.594;2023-03-04T02:24:24;102190.44;;;5.33;92.35
46211;BME280;52144;48.040;-1.594;2023-03-04T02:26:55;102187.78;;;5.30;92.18
46211;BME280;52144;48.040;-1.594;2023-03-04T02:29:22;102193.06;;;5.10;92.62
46211;BME280;52144;48.040;-1.594;2023-03-04T02:31:51;102190.41;;;5.32;92.61
46211;BME280;52144;48.040;-1.594;2023-03-04T02:34:21;102187.75;;;5.22;92.35
46211;BME280;52144;48.040;-1.594;2023-03-04T02:36:52;102192.19;;;5.17;93.60
46211;BME280;52144;48.040;-1.594;2023-03-04T02:39:22;102183.34;;;5.05;94.94
46211;BME280;52144;48.040;-1.594;2023-03-04T02:41:53;102184.25;;;5.23;92.45
46211;BME280;52144;48.040;-1.594;2023-03-04T02:44:24;102196.56;;;5.12;94.44
46211;BME280;52144;48.040;-1.594;2023-03-04T02:46:53;102180.72;;;5.11;93.66
46211;BME280;52144;48.040;-1.594;2023-03-04T02:49:23;102189.53;;;5.27;92.51
46211;BME280;52144;48.040;-1.594;2023-03-04T02:51:52;102178.09;;;5.09;91.29
46211;BME280;52144;48.040;-1.594;2023-03-04T02:54:25;102181.63;;;5.25;92.29
46211;BME280;52144;48.040;-1.594;2023-03-04T02:56:56;102186.00;;;5.25;91.47
46211;BME280;52144;48.040;-1.594;2023-03-04T02:59:26;102179.84;;;5.26;91.41
46211;BME280;52144;48.040;-1.594;2023-03-04T03:01:53;102188.66;;;5.12;92.38
46211;BME280;52144;48.040;-1.594;2023-03-04T03:04:22;102186.00;;;5.05;92.99
46211;BME280;52144;48.040;-1.594;2023-03-04T03:06:51;102190.41;;;5.04;93.23
46211;BME280;52144;48.040;-1.594;2023-03-04T03:09:19;102182.50;;;4.89;92.94
46211;BME280;52144;48.040;-1.594;2023-03-04T03:11:47;102183.31;;;4.63;94.88
46211;BME280;52144;48.040;-1.594;2023-03-04T03:14:15;102187.75;;;4.79;95.47
46211;BME280;52144;48.040;-1.594;2023-03-04T03:16:44;102191.28;;;4.85;94.39
46211;BME280;52144;48.040;-1.594;2023-03-04T03:19:12;102185.09;;;4.75;94.25
46211;BME280;52144;48.040;-1.594;2023-03-04T03:21:40;102183.38;;;4.95;93.04
46211;BME280;52144;48.040;-1.594;2023-03-04T03:24:07;102180.72;;;4.95;93.31
46211;BME280;52144;48.040;-1.594;2023-03-04T03:26:35;102186.03;;;4.97;92.61
46211;BME280;52144;48.040;-1.594;2023-03-04T03:29:05;102187.78;;;4.95;92.68
46211;BME280;52144;48.040;-1.594;2023-03-04T03:31:33;102186.03;;;4.97;93.36
46211;BME280;52144;48.040;-1.594;2023-03-04T03:34:02;102171.94;;;5.07;93.15
46211;BME280;52144;48.040;-1.594;2023-03-04T03:36:30;102177.19;;;5.04;91.86
46211;BME280;52144;48.040;-1.594;2023-03-04T03:38:58;102168.38;;;4.82;91.99
46211;BME280;52144;48.040;-1.594;2023-03-04T03:41:25;102171.03;;;4.97;92.30
46211;BME280;52144;48.040;-1.594;2023-03-04T03:43:53;102171.94;;;4.89;92.47
46211;BME280;52144;48.040;-1.594;2023-03-04T03:46:21;102173.69;;;4.99;93.02
46211;BME280;52144;48.040;-1.594;2023-03-04T03:48:49;102181.63;;;4.93;92.31
46211;BME280;52144;48.040;-1.594;2023-03-04T03:51:18;102176.31;;;4.91;91.53
46211;BME280;52144;48.040;-1.594;2023-03-04T03:53:45;102178.97;;;4.93;91.01
46211;BME280;52144;48.040;-1.594;2023-03-04T03:56:13;102177.16;;;4.78;90.31
46211;BME280;52144;48.040;-1.594;2023-03-04T03:58:41;102172.78;;;4.75;92.40
46211;BME280;52144;48.040;-1.594;2023-03-04T04:01:09;102173.66;;;4.62;92.52
46211;BME280;52144;48.040;-1.594;2023-03-04T04:03:37;102173.66;;;4.62;91.72
46211;BME280;52144;48.040;-1.594;2023-03-04T04:06:05;102170.09;;;4.57;92.05
46211;BME280;52144;48.040;-1.594;2023-03-04T04:08:35;102165.66;;;4.43;92.94
46211;BME280;52144;48.040;-1.594;2023-03-04T04:11:03;102167.38;;;4.31;94.02
46211;BME280;52144;48.040;-1.594;2023-03-04T04:15:58;102156.00;;;4.53;93.45
46211;BME280;52144;48.040;-1.594;2023-03-04T04:18:26;102166.63;;;4.64;92.72
46211;BME280;52144;48.040;-1.594;2023-03-04T04:20:54;102158.66;;;4.55;92.00
46211;BME280;52144;48.040;-1.594;2023-03-04T04:23:22;102166.59;;;4.56;91.28
46211;BME280;52144;48.040;-1.594;2023-03-04T04:25:53;102178.88;;;4.47;90.02
46211;BME280;52144;48.040;-1.594;2023-03-04T04:28:21;102177.13;;;4.50;92.55
46211;BME280;52144;48.040;-1.594;2023-03-04T04:30:49;102171.88;;;4.59;91.74
46211;BME280;52144;48.040;-1.594;2023-03-04T04:33:17;102176.25;;;4.56;90.96
46211;BME280;52144;48.040;-1.594;2023-03-04T04:35:45;102179.81;;;4.64;91.51
46211;BME280;52144;48.040;-1.594;2023-03-04T04:38:13;102178.94;;;4.62;90.92
46211;BME280;52144;48.040;-1.594;2023-03-04T04:40:40;102184.19;;;4.59;90.80
46211;BME280;52144;48.040;-1.594;2023-03-04T04:43:10;102175.41;;;4.60;90.49
46211;BME280;52144;48.040;-1.594;2023-03-04T04:45:38;102181.53;;;4.51;90.14
46211;BME280;52144;48.040;-1.594;2023-03-04T04:48:05;102185.00;;;4.36;92.46
46211;BME280;52144;48.040;-1.594;2023-03-04T04:50:34;102182.25;;;4.06;94.10
46211;BME280;52144;48.040;-1.594;2023-03-04T04:53:02;102182.31;;;4.24;92.53
46211;BME280;52144;48.040;-1.594;2023-03-04T04:55:30;102187.59;;;4.18;92.52
46211;BME280;52144;48.040;-1.594;2023-03-04T04:57:58;102190.97;;;3.92;94.29
46211;BME280;52144;48.040;-1.594;2023-03-04T05:00:27;102194.56;;;4.04;93.02
46211;BME280;52144;48.040;-1.594;2023-03-04T05:02:55;102192.63;;;3.76;94.20
46211;BME280;52144;48.040;-1.594;2023-03-04T05:05:23;102196.22;;;3.83;93.85
46211;BME280;52144;48.040;-1.594;2023-03-04T05:07:51;102192.50;;;3.53;95.00
46211;BME280;52144;48.040;-1.594;2023-03-04T05:10:19;102199.75;;;3.88;93.75
46211;BME280;52144;48.040;-1.594;2023-03-04T05:12:46;102198.00;;;3.92;93.81
46211;BME280;52144;48.040;-1.594;2023-03-04T05:15:15;102200.72;;;4.01;92.91
46211;BME280;52144;48.040;-1.594;2023-03-04T05:17:44;102200.63;;;3.86;93.11
46211;BME280;52144;48.040;-1.594;2023-03-04T05:20:12;102211.84;;;3.55;94.58
46211;BME280;52144;48.040;-1.594;2023-03-04T05:22:40;102208.47;;;3.78;93.81
46211;BME280;52144;48.040;-1.594;2023-03-04T05:25:08;102209.44;;;3.92;93.11
46211;BME280;52144;48.040;-1.594;2023-03-04T05:27:36;102204.22;;;4.00;94.33
46211;BME280;52144;48.040;-1.594;2023-03-04T05:30:05;102219.13;;;3.96;93.14
46211;BME280;52144;48.040;-1.594;2023-03-04T05:32:33;102209.50;;;4.01;92.91
46211;BME280;52144;48.040;-1.594;2023-03-04T05:35:02;102214.72;;;3.92;92.21
46211;BME280;52144;48.040;-1.594;2023-03-04T05:37:30;102208.59;;;3.98;92.68
46211;BME280;52144;48.040;-1.594;2023-03-04T05:39:58;102219.16;;;3.99;92.22
46211;BME280;52144;48.040;-1.594;2023-03-04T05:42:26;102218.28;;;4.02;92.37
46211;BME280;52144;48.040;-1.594;2023-03-04T05:44:53;102213.81;;;3.90;91.85
46211;BME280;52144;48.040;-1.594;2023-03-04T05:47:21;102219.91;;;3.80;93.36
46211;BME280;52144;48.040;-1.594;2023-03-04T05:49:49;102222.56;;;3.80;92.57
46211;BME280;52144;48.040;-1.594;2023-03-04T05:52:18;102219.06;;;3.81;92.97
46211;BME280;52144;48.040;-1.594;2023-03-04T05:54:46;102219.66;;;3.43;95.34
46211;BME280;52144;48.040;-1.594;2023-03-04T05:57:14;102221.28;;;3.27;96.28
46211;BME280;52144;48.040;-1.594;2023-03-04T05:59:41;102225.59;;;3.19;96.20
46211;BME280;52144;48.040;-1.594;2023-03-04T06:02:09;102228.09;;;3.00;96.59
46211;BME280;52144;48.040;-1.594;2023-03-04T06:04:37;102219.38;;;3.08;98.39
46211;BME280;52144;48.040;-1.594;2023-03-04T06:07:05;102225.47;;;3.05;97.47
46211;BME280;52144;48.040;-1.594;2023-03-04T06:09:34;102233.25;;;2.90;98.51
46211;BME280;52144;48.040;-1.594;2023-03-04T06:12:02;102234.09;;;2.86;98.28
46211;BME280;52144;48.040;-1.594;2023-03-04T06:14:29;102235.06;;;2.97;98.33
46211;BME280;52144;48.040;-1.594;2023-03-04T06:16:57;102244.69;;;2.95;97.41
46211;BME280;52144;48.040;-1.594;2023-03-04T06:19:25;102246.59;;;3.11;96.67
46211;BME280;52144;48.040;-1.594;2023-03-04T06:21:53;102251.16;;;3.28;94.67
46211;BME280;52144;48.040;-1.594;2023-03-04T06:24:20;102252.00;;;3.24;94.81
46211;BME280;52144;48.040;-1.594;2023-03-04T06:26:50;102259.03;;;3.25;95.97
46211;BME280;52144;48.040;-1.594;2023-03-04T06:29:17;102263.50;;;3.33;94.23
46211;BME280;52144;48.040;-1.594;2023-03-04T06:31:45;102264.22;;;3.17;94.38
46211;BME280;52144;48.040;-1.594;2023-03-04T06:34:13;102264.13;;;3.06;96.17
46211;BME280;52144;48.040;-1.594;2023-03-04T06:36:41;102254.47;;;3.07;96.27
46211;BME280;52144;48.040;-1.594;2023-03-04T06:39:09;102268.16;;;2.72;98.29
46211;BME280;52144;48.040;-1.594;2023-03-04T06:41:37;102262.38;;;3.04;96.95
46211;BME280;52144;48.040;-1.594;2023-03-04T06:44:06;102262.16;;;2.84;97.19
46211;BME280;52144;48.040;-1.594;2023-03-04T06:46:34;102270.34;;;3.13;95.80
46211;BME280;52144;48.040;-1.594;2023-03-04T06:49:02;102272.81;;;2.99;96.85
46211;BME280;52144;48.040;-1.594;2023-03-04T06:51:30;102270.19;;;2.99;96.29
46211;BME280;52144;48.040;-1.594;2023-03-04T06:53:58;102274.81;;;3.21;95.66
46211;BME280;52144;48.040;-1.594;2023-03-04T06:56:26;102280.06;;;3.21;94.34
46211;BME280;52144;48.040;-1.594;2023-03-04T06:58:54;102290.53;;;3.12;94.31
46211;BME280;52144;48.040;-1.594;2023-03-04T07:01:26;102284.50;;;3.22;94.57
46211;BME280;52144;48.040;-1.594;2023-03-04T07:03:55;102293.22;;;3.17;96.00
46211;BME280;52144;48.040;-1.594;2023-03-04T07:06:26;102293.56;;;3.55;92.91
46211;BME280;52144;48.040;-1.594;2023-03-04T07:08:54;102294.50;;;3.60;92.55
46211;BME280;52144;48.040;-1.594;2023-03-04T07:11:23;102296.25;;;3.61;92.00
46211;BME280;52144;48.040;-1.594;2023-03-04T07:13:51;102290.22;;;3.78;90.97
46211;BME280;52144;48.040;-1.594;2023-03-04T07:16:21;102296.22;;;3.58;91.65
46211;BME280;52144;48.040;-1.594;2023-03-04T07:18:50;102292.75;;;3.63;92.08
46211;BME280;52144;48.040;-1.594;2023-03-04T07:21:18;102296.38;;;3.77;91.11
46211;BME280;52144;48.040;-1.594;2023-03-04T07:23:46;102305.00;;;3.57;92.18
46211;BME280;52144;48.040;-1.594;2023-03-04T07:26:13;102302.50;;;3.76;91.48
46211;BME280;52144;48.040;-1.594;2023-03-04T07:28:41;102308.72;;;3.84;91.00
46211;BME280;52144;48.040;-1.594;2023-03-04T07:31:11;102303.56;;;4.02;90.69
46211;BME280;52144;48.040;-1.594;2023-03-04T07:33:39;102304.34;;;3.86;92.54
46211;BME280;52144;48.040;-1.594;2023-03-04T07:36:09;102307.22;;;4.20;91.17
46211;BME280;52144;48.040;-1.594;2023-03-04T07:38:38;102294.84;;;4.10;89.90
46211;BME280;52144;48.040;-1.594;2023-03-04T07:41:06;102303.59;;;4.06;91.00
46211;BME280;52144;48.040;-1.594;2023-03-04T07:43:34;102308.00;;;4.07;91.67
46211;BME280;52144;48.040;-1.594;2023-03-04T07:46:01;102304.53;;;4.17;91.00
46211;BME280;52144;48.040;-1.594;2023-03-04T07:48:29;102301.06;;;4.27;90.45
46211;BME280;52144;48.040;-1.594;2023-03-04T07:51:05;102301.13;;;4.32;90.28
46211;BME280;52144;48.040;-1.594;2023-03-04T07:53:34;102305.59;;;4.47;89.75
46211;BME280;52144;48.040;-1.594;2023-03-04T07:56:04;102306.53;;;4.56;88.96
46211;BME280;52144;48.040;-1.594;2023-03-04T07:58:33;102304.84;;;4.78;88.62
46211;BME280;52144;48.040;-1.594;2023-03-04T08:01:00;102308.38;;;4.83;87.49
46211;BME280;52144;48.040;-1.594;2023-03-04T08:03:28;102312.81;;;4.98;87.28
46211;BME280;52144;48.040;-1.594;2023-03-04T08:05:56;102317.19;;;4.96;87.46
46211;BME280;52144;48.040;-1.594;2023-03-04T08:08:25;102318.06;;;4.85;87.60
46211;BME280;52144;48.040;-1.594;2023-03-04T08:10:55;102323.22;;;4.57;89.20
46211;BME280;52144;48.040;-1.594;2023-03-04T08:13:23;102318.03;;;4.75;89.20
46211;BME280;52144;48.040;-1.594;2023-03-04T08:15:54;102319.75;;;4.67;90.34
46211;BME280;52144;48.040;-1.594;2023-03-04T08:18:22;102327.69;;;4.73;89.80
46211;BME280;52144;48.040;-1.594;2023-03-04T08:20:50;102333.00;;;4.79;88.94
46211;BME280;52144;48.040;-1.594;2023-03-04T08:23:18;102340.22;;;5.25;87.95
46211;BME280;52144;48.040;-1.594;2023-03-04T08:25:47;102334.00;;;5.18;87.55
46211;BME280;52144;48.040;-1.594;2023-03-04T08:28:16;102338.38;;;5.06;89.27
46211;BME280;52144;48.040;-1.594;2023-03-04T08:30:44;102338.38;;;4.99;88.48
46211;BME280;52144;48.040;-1.594;2023-03-04T08:33:18;102341.09;;;5.35;88.42
46211;BME280;52144;48.040;-1.594;2023-03-04T08:35:46;102339.34;;;5.55;87.22
46211;BME280;52144;48.040;-1.594;2023-03-04T08:38:14;102343.78;;;5.69;86.16
46211;BME280;52144;48.040;-1.594;2023-03-04T08:40:42;102348.16;;;5.70;86.65
46211;BME280;52144;48.040;-1.594;2023-03-04T08:43:10;102339.34;;;5.58;87.07
46211;BME280;52144;48.040;-1.594;2023-03-04T08:45:39;102344.63;;;5.38;88.00
46211;BME280;52144;48.040;-1.594;2023-03-04T08:48:07;102336.72;;;5.83;87.24
46211;BME280;52144;48.040;-1.594;2023-03-04T08:50:35;102343.75;;;5.56;86.41
46211;BME280;52144;48.040;-1.594;2023-03-04T08:53:04;102341.09;;;5.72;87.74
46211;BME280;52144;48.040;-1.594;2023-03-04T08:55:32;102353.47;;;5.60;87.52
46211;BME280;52144;48.040;-1.594;2023-03-04T08:58:00;102344.63;;;5.80;86.44
46211;BME280;52144;48.040;-1.594;2023-03-04T09:00:28;102346.41;;;5.89;87.30
46211;BME280;52144;48.040;-1.594;2023-03-04T09:02:58;102354.34;;;6.24;86.04
46211;BME280;52144;48.040;-1.594;2023-03-04T09:05:27;102346.41;;;6.21;83.74
46211;BME280;52144;48.040;-1.594;2023-03-04T09:07:55;102344.63;;;6.20;84.38
46211;BME280;52144;48.040;-1.594;2023-03-04T09:10:23;102344.56;;;6.43;85.18
46211;BME280;52144;48.040;-1.594;2023-03-04T09:12:51;102341.97;;;6.34;85.24
46211;BME280;52144;48.040;-1.594;2023-03-04T09:15:19;102341.09;;;6.22;83.29
46211;BME280;52144;48.040;-1.594;2023-03-04T09:17:47;102339.31;;;6.35;83.21
46211;BME280;52144;48.040;-1.594;2023-03-04T09:22:43;102341.84;;;6.74;81.31
46211;BME280;52144;48.040;-1.594;2023-03-04T09:25:13;102344.50;;;6.74;83.10
46211;BME280;52144;48.040;-1.594;2023-03-04T09:27:41;102342.56;;;7.05;79.93
46211;BME280;52144;48.040;-1.594;2023-03-04T09:30:10;102338.06;;;7.16;79.33
46211;BME280;52144;48.040;-1.594;2023-03-04T09:32:38;102334.63;;;7.07;77.96
46211;BME280;52144;48.040;-1.594;2023-03-04T09:35:07;102333.81;;;6.92;79.04
46211;BME280;52144;48.040;-1.594;2023-03-04T09:37:37;102334.50;;;7.25;77.65
46211;BME280;52144;48.040;-1.594;2023-03-04T09:40:10;102324.81;;;7.16;78.41
46211;BME280;52144;48.040;-1.594;2023-03-04T09:42:44;102322.00;;;7.44;77.72
46211;BME280;52144;48.040;-1.594;2023-03-04T09:45:16;102320.97;;;7.63;74.01
46211;BME280;52144;48.040;-1.594;2023-03-04T09:47:45;102328.78;;;7.80;74.69
46211;BME280;52144;48.040;-1.594;2023-03-04T09:50:15;102331.53;;;7.70;75.68
46211;BME280;52144;48.040;-1.594;2023-03-04T09:52:55;102323.44;;;7.85;75.84
46211;BME280;52144;48.040;-1.594;2023-03-04T09:55:32;102327.88;;;7.83;76.39
46211;BME280;52144;48.040;-1.594;2023-03-04T09:58:06;102320.97;;;7.63;73.66
46211;BME280;52144;48.040;-1.594;2023-03-04T10:00:38;102320.53;;;8.11;72.26
46211;BME280;52144;48.040;-1.594;2023-03-04T10:03:15;102325.72;;;8.22;73.11
46211;BME280;52144;48.040;-1.594;2023-03-04T10:05:52;102324.91;;;8.14;72.60
46211;BME280;52144;48.040;-1.594;2023-03-04T10:08:35;102323.59;;;8.58;72.84
46211;BME280;52144;48.040;-1.594;2023-03-04T10:11:10;102320.06;;;8.56;72.82
46211;BME280;52144;48.040;-1.594;2023-03-04T10:13:45;102325.22;;;8.71;70.61
46211;BME280;52144;48.040;-1.594;2023-03-04T10:16:20;102326.88;;;8.81;71.54
46211;BME280;52144;48.040;-1.594;2023-03-04T10:18:52;102317.59;;;9.10;68.30
46211;BME280;52144;48.040;-1.594;2023-03-04T10:21:26;102317.19;;;8.74;68.66
46211;BME280;52144;48.040;-1.594;2023-03-04T10:23:59;102315.47;;;8.69;68.50
46211;BME280;52144;48.040;-1.594;2023-03-04T10:26:29;102312.47;;;8.20;68.87
46211;BME280;52144;48.040;-1.594;2023-03-04T10:28:58;102320.28;;;8.34;69.44
46211;BME280;52144;48.040;-1.594;2023-03-04T10:31:32;102321.88;;;9.22;69.09
46211;BME280;52144;48.040;-1.594;2023-03-04T10:34:02;102330.03;;;9.08;67.19
46211;BME280;52144;48.040;-1.594;2023-03-04T10:36:42;102317.31;;;8.65;67.87
46211;BME280;52144;48.040;-1.594;2023-03-04T10:39:17;102317.69;;;8.28;68.32
46211;BME280;52144;48.040;-1.594;2023-03-04T10:41:52;102312.09;;;7.64;71.20
46211;BME280;52144;48.040;-1.594;2023-03-04T10:44:21;102314.41;;;8.03;69.42
46211;BME280;52144;48.040;-1.594;2023-03-04T10:46:52;102311.84;;;7.95;69.47
46211;BME280;52144;48.040;-1.594;2023-03-04T10:49:21;102311.03;;;7.89;68.71
46211;BME280;52144;48.040;-1.594;2023-03-04T10:51:51;102305.78;;;7.81;69.64
46211;BME280;52144;48.040;-1.594;2023-03-04T10:54:26;102311.72;;;8.08;68.73
46211;BME280;52144;48.040;-1.594;2023-03-04T10:56:57;102309.97;;;8.03;68.46
46211;BME280;52144;48.040;-1.594;2023-03-04T10:59:42;102309.34;;;8.65;66.69
46211;BME280;52144;48.040;-1.594;2023-03-04T11:02:30;102296.00;;;9.32;66.45
46211;BME280;52144;48.040;-1.594;2023-03-04T11:05:10;102300.75;;;9.10;66.48
46211;BME280;52144;48.040;-1.594;2023-03-04T11:07:44;102290.28;;;9.56;65.30
46211;BME280;52144;48.040;-1.594;2023-03-04T11:10:25;102299.97;;;10.12;64.46
46211;BME280;52144;48.040;-1.594;2023-03-04T11:12:59;102292.56;;;9.23;64.64
46211;BME280;52144;48.040;-1.594;2023-03-04T11:15:48;102286.28;;;9.29;63.33
46211;BME280;52144;48.040;-1.594;2023-03-04T11:18:19;102290.81;;;9.22;64.68
46211;BME280;52144;48.040;-1.594;2023-03-04T11:20:50;102284.47;;;9.86;63.71
46211;BME280;52144;48.040;-1.594;2023-03-04T11:23:24;102282.91;;;10.20;63.69
46211;BME280;52144;48.040;-1.594;2023-03-04T11:25:58;102277.81;;;10.55;61.38
46211;BME280;52144;48.040;-1.594;2023-03-04T11:28:41;102270.53;;;9.70;61.12
46211;BME280;52144;48.040;-1.594;2023-03-04T11:31:14;102281.59;;;9.47;62.20
46211;BME280;52144;48.040;-1.594;2023-03-04T11:33:49;102275.13;;;9.61;62.28
46211;BME280;52144;48.040;-1.594;2023-03-04T11:36:28;102268.31;;;9.45;61.90
46211;BME280;52144;48.040;-1.594;2023-03-04T11:39:00;102271.56;;;10.11;61.04
46211;BME280;52144;48.040;-1.594;2023-03-04T11:41:32;102266.72;;;9.83;60.68
46211;BME280;52144;48.040;-1.594;2023-03-04T11:44:02;102266.09;;;10.18;60.16
46211;BME280;52144;48.040;-1.594;2023-03-04T11:46:58;102261.47;;;10.28;60.62
46211;BME280;52144;48.040;-1.594;2023-03-04T11:49:47;102255.69;;;10.92;60.16
46211;BME280;52144;48.040;-1.594;2023-03-04T11:52:23;102255.22;;;10.29;61.21
46211;BME280;52144;48.040;-1.594;2023-03-04T11:55:07;102267.38;;;9.97;59.37
46211;BME280;52144;48.040;-1.594;2023-03-04T11:57:47;102258.59;;;9.92;60.63
46211;BME280;52144;48.040;-1.594;2023-03-04T12:00:31;102253.88;;;9.58;61.06
46211;BME280;52144;48.040;-1.594;2023-03-04T12:06:07;102238.09;;;9.97;60.88
46211;BME280;52144;48.040;-1.594;2023-03-04T12:08:50;102237.66;;;10.19;61.49
46211;BME280;52144;48.040;-1.594;2023-03-04T12:11:26;102230.63;;;10.15;60.66
46211;BME280;52144;48.040;-1.594;2023-03-04T12:14:11;102234.88;;;10.25;60.46
46211;BME280;52144;48.040;-1.594;2023-03-04T12:17:08;102229.75;;;10.58;58.93
46211;BME280;52144;48.040;-1.594;2023-03-04T12:19:56;102222.88;;;10.48;59.79
46211;BME280;52144;48.040;-1.594;2023-03-04T12:22:34;102214.03;;;10.02;59.84
46211;BME280;52144;48.040;-1.594;2023-03-04T12:25:33;102221.50;;;10.28;60.12
46211;BME280;52144;48.040;-1.594;2023-03-04T12:28:18;102219.84;;;10.21;61.11
46211;BME280;52144;48.040;-1.594;2023-03-04T12:30:58;102211.50;;;9.94;60.33
46211;BME280;52144;48.040;-1.594;2023-03-04T12:33:40;102216.69;;;10.02;61.55
46211;BME280;52144;48.040;-1.594;2023-03-04T12:36:19;102216.34;;;9.74;60.76
46211;BME280;52144;48.040;-1.594;2023-03-04T12:38:58;102209.06;;;9.34;62.29
46211;BME280;52144;48.040;-1.594;2023-03-04T12:41:33;102219.25;;;9.58;63.24
46211;BME280;52144;48.040;-1.594;2023-03-04T12:44:13;102214.06;;;9.52;62.33
46211;BME280;52144;48.040;-1.594;2023-03-04T12:46:50;102209.63;;;9.00;62.09
46211;BME280;52144;48.040;-1.594;2023-03-04T12:49:33;102206.16;;;9.48;63.33
46211;BME280;52144;48.040;-1.594;2023-03-04T12:52:12;102196.28;;;9.54;62.63
46211;BME280;52144;48.040;-1.594;2023-03-04T12:54:44;102195.91;;;9.76;59.53
46211;BME280;52144;48.040;-1.594;2023-03-04T12:57:15;102203.03;;;9.24;61.04
46211;BME280;52144;48.040;-1.594;2023-03-04T12:59:49;102188.94;;;9.17;62.20
46211;BME280;52144;48.040;-1.594;2023-03-04T13:02:35;102196.56;;;9.39;61.93
46211;BME280;52144;48.040;-1.594;2023-03-04T13:05:16;102180.06;;;10.13;59.82
46211;BME280;52144;48.040;-1.594;2023-03-04T13:07:53;102177.38;;;10.57;58.80
46211;BME280;52144;48.040;-1.594;2023-03-04T13:10:25;102175.66;;;10.54;58.81
46211;BME280;52144;48.040;-1.594;2023-03-04T13:12:54;102176.28;;;10.23;59.06
46211;BME280;52144;48.040;-1.594;2023-03-04T13:15:29;102178.09;;;9.78;58.93